To modify the report, make a selection from each column below and re-run.

Report Type Graduation Filter Grade Filter Gender

(Grade filter for indiv report.)


Course PR Report: Crescenta Valley Park

The report below currently displays:

  • Individual PR's
  • Grads & Current Runners
  • All Grades
  • Girls
  • 3 miles
  • Grads & Current Runners
All Time Rank Runner Name Grad Year Time Pace PR Date PR Event # of
Races
Graph full race
history on course
(pick up to 15)
1 Anika Renken 2013 19:28 6:29 10/14/10 Rio Hondo Cluster #2 2
2 Helena Van Loan 2014 19:43 6:34 10/14/10 Rio Hondo Cluster #2 1
3 Sydney Morrow 2022 19:48 6:36 10/15/19 Rio Hondo League #2 2
4 Emily Ye 2016 19:56 6:39 10/3/15 Staub/Barnes Invitational 2
5 Kaylee Anderson 2012 20:00 6:40 10/14/10 Rio Hondo Cluster #2 2
6 Brooklyn Robinson 2021 20:19 6:46 9/30/17 Staub/Barnes Invitational 2
7 Mai Koyama 2022 20:19.1 6:46 10/11/18 Rio Hondo League #2 2
8 Elizabeth Bock 2019 20:19.59 6:47 10/3/15 Staub/Barnes Invitational 6
9 Cece Zhu 2012 20:27 6:49 10/14/10 Rio Hondo Cluster #2 1
10 Lindsey Calva 2019 20:32.48 6:51 10/11/18 Rio Hondo League #2 5
11 Bailey Wu 2018 20:33.1 6:51 10/13/16 Rio Hondo League #2 4
12 Maddy Engelsman 2018 20:36.83 6:52 10/12/17 Rio Hondo League #2 4
13 Kerrigan Riley 2022 20:38 6:53 10/15/19 Rio Hondo League #2 1
14 Lindsay Michels 2021 20:48 6:56 10/15/19 Rio Hondo League #2 5
15 Maaike Wielenga 2016 20:49.88 6:57 10/3/15 Staub/Barnes Invitational 3
16 Aj Ramirez 0 21:13 7:04 10/14/10 Rio Hondo Cluster #2 1
17 Sarah Uriarte 2019 21:19.3 7:06 10/13/16 Rio Hondo League #2 3
18 Lilian Zhu 2022 21:22.56 7:08 10/11/18 Rio Hondo League #2 3
19 Amelia Jarolim 2021 21:22.99 7:08 10/11/18 Rio Hondo League #2 5
20 Briana Nunez 2016 21:41.36 7:14 9/23/15 Rio Hondo League #1 1
21 Madeline Chin 2013 21:49 7:16 10/14/10 Rio Hondo Cluster #2 2
22 Aimee Fata 2010 21:54 7:18 9/24/09 Rio Hondo Cluster #1 1
23 Maylis Whetsel 2019 21:55.44 7:18 10/3/15 Staub/Barnes Invitational 6
24 Jessica Hitchcock 2013 21:59 7:20 10/14/10 Rio Hondo Cluster #2 2
25 Fiona Bock 2016 21:59.48 7:20 9/23/15 Rio Hondo League #1 2
26 Celeste Amaya 2018 21:59.75 7:20 10/12/17 Rio Hondo League #2 1
27 Caroline Liu 2018 22:01.3 7:20 10/13/16 Rio Hondo League #2 5
28 Taci Chin Robinson 0 22:05 7:22 9/24/09 Rio Hondo Cluster #1 1
29 Laura Lussier 2012 22:13 7:24 10/14/10 Rio Hondo Cluster #2 2
29 Nicole Endacott 2011 22:13 7:24 9/24/09 Rio Hondo Cluster #1 1
31 Quyen Ballagh 2020 22:23.02 7:28 10/1/16 Staub/Barnes Invitational 3
32 Marion Wood 2015 22:30.47 7:30 10/4/14 Staub/Barnes Invitational 1
33 Alana Ballagh 2018 22:32.03 7:31 10/4/14 Staub/Barnes Invitational 3
34 Sara Jan 2012 22:33 7:31 10/14/10 Rio Hondo Cluster #2 2
35 Liz Baroi 0 22:34 7:31 9/24/09 Rio Hondo Cluster #1 1
36 Julia Primuth 2015 22:45 7:35 10/1/11 Kenny Staub Invitational 1
37 Luyang Zhang 2021 22:46 7:35 10/15/19 Rio Hondo League #2 3
38 Katherine Conte 2017 22:46.94 7:36 10/3/15 Staub/Barnes Invitational 2
39 Caroline Liebe 2020 22:48.84 7:36 10/1/16 Staub/Barnes Invitational 4
40 Miranda Liu 2022 22:53 7:38 10/15/19 Rio Hondo League #2 3
41 Remeny White 2014 22:55 7:38 10/1/11 Kenny Staub Invitational 2
42 Nora Devita 2011 22:58 7:39 9/24/09 Rio Hondo Cluster #1 1
43 Kaile Fernandes 2023 22:59 7:40 10/15/19 Rio Hondo League #2 1
44 Cindy Chan 2012 23:00 7:40 10/14/10 Rio Hondo Cluster #2 2
45 Maia Thomas 2016 23:03 7:41 9/29/12 Staub/Barnes Invitational 3
46 Helena Fu 2018 23:06.87 7:42 10/4/14 Staub/Barnes Invitational 1
47 Evelyn Beadle 2016 23:07 7:42 9/29/12 Staub/Barnes Invitational 1
48 Alexa Esler 2016 23:09 7:43 9/29/12 Staub/Barnes Invitational 1
49 Kei Shao 2013 23:12 7:44 10/1/11 Kenny Staub Invitational 2
50 Kate Lee 2020 23:26.8 7:49 10/13/16 Rio Hondo League #2 2
51 Jade Roman 2011 23:30 7:50 9/24/09 Rio Hondo Cluster #1 1
52 Amber Gonzalez Pacheco 2020 23:36 7:52 10/15/19 Rio Hondo League #2 3
53 Kelly Wu 2021 23:40.9 7:54 10/12/17 Rio Hondo League #2 2
54 Carmella Shaffer 2019 23:47.34 7:56 10/3/15 Staub/Barnes Invitational 2
55 Franny Cross 2018 23:57 7:59 10/13/16 Rio Hondo League #2 2
56 Lily Round 2016 24:00.03 8:00 10/4/14 Staub/Barnes Invitational 1
57 Amber Laird 2013 24:03 8:01 10/14/10 Rio Hondo Cluster #2 3
58 Lauren Jones 2021 24:05 8:02 9/30/17 Staub/Barnes Invitational 3
58 Maggie Liu 2015 24:05 8:02 10/1/11 Kenny Staub Invitational 2
60 Claire Foster 2015 24:06 8:02 10/1/11 Kenny Staub Invitational 2
61 Natali Lelieur 2018 24:11.77 8:04 10/12/17 Rio Hondo League #2 5
62 Jessica Chung 2015 24:12.75 8:04 9/29/12 Staub/Barnes Invitational 1
63 Amy Choi 2015 24:16 8:05 9/29/12 Staub/Barnes Invitational 1
64 Amelia Anthony 2018 24:19.52 8:07 10/4/14 Staub/Barnes Invitational 1
65 Rebecca Phan 2014 24:20.18 8:07 9/29/12 Staub/Barnes Invitational 2
66 Camille Endacott 0 24:22 8:07 9/24/09 Rio Hondo Cluster #1 1
66 Daniella Lat 2023 24:22 8:07 10/15/19 Rio Hondo League #2 1
68 Jessica Santos 2013 24:31.96 8:11 9/29/12 Staub/Barnes Invitational 1
69 Destiny Rivera 2020 24:36.06 8:12 9/29/18 Staub/Barnes Invitational 2
70 Gabriela Rodriguez 2022 24:36.46 8:12 9/29/18 Staub/Barnes Invitational 3
71 Diana Perea 2022 24:37.46 8:12 9/29/18 Staub/Barnes Invitational 3
72 Ashley Moon 0 24:41 8:14 10/14/10 Rio Hondo Cluster #2 1
72 Kate Felaman 0 24:41 8:14 9/24/09 Rio Hondo Cluster #1 1
74 Kira Gabriel 2015 24:43 8:14 10/1/11 Kenny Staub Invitational 2
75 Sarah Kang 2022 24:50.13 8:17 10/11/18 Rio Hondo League #2 3
76 Jackie Takarabe 2019 24:55.97 8:19 10/1/16 Staub/Barnes Invitational 1
77 Misha Holtz 2014 24:56.95 8:19 10/1/11 Kenny Staub Invitational 1
78 Sabrina Sanchez 0 24:57 8:19 10/14/10 Rio Hondo Cluster #2 1
79 Lia Lohr 2012 25:01 8:20 10/14/10 Rio Hondo Cluster #2 2
80 Lauren Sharkey 2018 25:14.5 8:25 10/13/16 Rio Hondo League #2 2
81 Mallory Downing 0 25:18 8:26 9/24/09 Rio Hondo Cluster #1 1
82 Kathy Lui 2014 25:28.05 8:29 9/29/12 Staub/Barnes Invitational 3
83 Maya Gonzalez-Pacheco 2023 25:39 8:33 10/15/19 Rio Hondo League #2 1
84 Sydney Lagarce 2023 25:41 8:34 10/15/19 Rio Hondo League #2 1
85 Stephanie Warren 2015 25:41.14 8:34 9/29/12 Staub/Barnes Invitational 2
86 Alyssa Mohamadzaden 2016 25:45.66 8:35 9/29/12 Staub/Barnes Invitational 1
87 Sooji Hong 2012 25:57 8:39 9/24/09 Rio Hondo Cluster #1 1
88 Eunchue Moon 0 25:58 8:39 9/24/09 Rio Hondo Cluster #1 1
89 Pricilla Hur 0 25:59 8:40 10/14/10 Rio Hondo Cluster #2 1
90 Marta Jerebets 2018 26:06.09 8:42 10/4/14 Staub/Barnes Invitational 1
91 Vesta J. 0 26:07 8:42 10/14/10 Rio Hondo Cluster #2 1
92 Dana Lin 2020 26:10.1 8:43 10/13/16 Rio Hondo League #2 3
93 Isabel Chin 2013 26:11 8:44 9/29/12 Staub/Barnes Invitational 1
94 Emily Gin 2017 26:27.25 8:49 10/4/14 Staub/Barnes Invitational 1
95 Katherine Ngan 2015 26:31.18 8:50 10/1/11 Kenny Staub Invitational 2
96 Alicia Wilgoren 2023 26:35 8:52 10/15/19 Rio Hondo League #2 1
97 Mackenzie Chang 2013 26:38 8:53 10/14/10 Rio Hondo Cluster #2 3
98 Vesta Javaheri 2013 26:47.34 8:56 9/29/12 Staub/Barnes Invitational 2
99 Kira Alford 2013 26:52 8:57 9/24/09 Rio Hondo Cluster #1 1
100 Andrea Seet 2014 27:17.2 9:06 10/1/11 Kenny Staub Invitational 1
101 Sheila Kendall 2010 27:23 9:08 9/24/09 Rio Hondo Cluster #1 1
102 Cameron Chang 2017 27:34.78 9:12 10/4/14 Staub/Barnes Invitational 1
103 Diana Kim 0 27:59 9:20 10/14/10 Rio Hondo Cluster #2 1
104 Ke Shao 2013 28:00 9:20 9/24/09 Rio Hondo Cluster #1 1
105 Susan Rodriguez 2018 28:15.51 9:25 10/12/17 Rio Hondo League #2 2
106 Tru Pierone 2015 28:15.78 9:25 9/29/12 Staub/Barnes Invitational 1
107 Tei Park 2017 28:31.18 9:30 10/1/16 Staub/Barnes Invitational 1
108 Tiffany Show 2012 28:40 9:33 10/14/10 Rio Hondo Cluster #2 1
109 Hannah Bae 2022 29:00 9:40 10/15/19 Rio Hondo League #2 1
110 Amber Chen 2022 29:04.07 9:41 10/11/18 Rio Hondo League #2 2
111 Isabelle Whetsel 2023 30:19 10:06 10/15/19 Rio Hondo League #2 1
112 Kiera Atkinson 2021 30:27 10:09 10/15/19 Rio Hondo League #2 1
113 Jun Kim 0 30:29 10:10 10/14/10 Rio Hondo Cluster #2 1
114 Jillian Goldstein 2022 31:15 10:25 10/15/19 Rio Hondo League #2 1
115 Lily Dorn 2012 31:58 10:39 9/24/09 Rio Hondo Cluster #1 1
116 Ariadne Lyon 0 32:11 10:44 9/24/09 Rio Hondo Cluster #1 1
117 sabrina torres 2019 32:27.19 10:49 10/12/17 Rio Hondo League #2 2
118 Keren Im 2012 32:36 10:52 9/24/09 Rio Hondo Cluster #1 1
119 Bela Salazar 2022 43:57 14:39 10/15/19 Rio Hondo League #2 1
All Time Rank Runner Name Grad Year Time Pace PR Date PR Event # of
Races
Graph full race
history on course
(pick up to 7)

Note: All columns are sortable by clicking on the column heading.